Main page
METAR-TAF:

METAR-TAF

Airports :

Valdosta Regional Airport

Valdosta, Georgia, United States

latitude: 30-47N, longitude: 083-17W, elevation: 203 ft

Current weather observation

The report was made 15 minutes ago, at 09:53 UTC
Wind 6 mph from the North
Temperature 55°F
Humidity 100%
Pressure 30.01 in. Hg
Visibility: 10 miles
Clear sky

METAR: KVLD 240953Z AUTO 36005KT 10SM CLR 13/13 A3001 RMK AO2 SLP169 T01330128

Time: 06:08 (10:08 UTC)

Forecast

The report was made 4 hours and 48 minutes ago, at 05:20 UTC
Forecast valid from 24 at 06 UTC to 25 at 06 UTC
Wind 3 mph from the North/Northeast
Visibility: 6 miles
Clear sky
From 25 at 0300 UTC
Wind 3 mph from the East
Visibility: 6 miles
Scattered clouds at a height of 5000 ft

TAF: KVLD 240520Z 2406/2506 02003KT P6SM SKC FM250300 08003KT P6SM SCT050

Weather observations and forecasts of more than 4000 airports (METAR and TAF reports).

The available stations are represented by yellow and red dots on the map.

Hover mouse over dot to see the name of the station.

Then click to see weather observations and forecasts.

To change the map : click on the green buttons with a black cross to zoom in, on the green button with a dash to zoom out, or on the green arrows for adjacent maps.


METAR-TAF: